Time;durP1;ratioP1;P1;durP2;ratioP2;P2;SDS_P1;SDS_P2;PMS_P1;PMS_P2;Temp;Humidity;BMP_temperature;BMP_pressure;BME280_temperature;BME280_humidity;BME280_pressure;Samples;Min_cycle;Max_cycle;Signal;HPM_P1;HPM_P2
2023/03/01 00:00:50;;;;;;;1.20;1.10;;;;;;;19.70;30.08;99458.41;1901553;74;28076;-54
2023/03/01 00:03:38;;;;;;;1.17;1.07;;;;;;;19.72;30.08;99450.33;1846891;76;28146;-55
2023/03/01 00:06:28;;;;;;;1.05;1.05;;;;;;;19.72;30.09;99460.42;1895057;74;28142;-56
2023/03/01 00:09:17;;;;;;;0.90;0.90;;;;;;;19.69;30.09;99459.48;1901038;74;28020;-54
2023/03/01 00:12:07;;;;;;;0.95;0.95;;;;;;;19.72;30.09;99454.97;1910697;74;28105;-57
2023/03/01 00:14:55;;;;;;;1.10;1.10;;;;;;;19.74;30.09;99455.03;1919559;73;28027;-53
2023/03/01 00:17:44;;;;;;;1.00;1.00;;;;;;;19.74;30.06;99460.48;1945064;73;28071;-50
2023/03/01 00:20:32;;;;;;;1.05;1.05;;;;;;;19.72;30.09;99457.69;1925841;73;28137;-50
2023/03/01 00:23:21;;;;;;;1.17;1.07;;;;;;;19.73;30.10;99462.91;1910743;74;28231;-54
2023/03/01 00:26:13;;;;;;;1.02;1.00;;;;;;;19.74;30.09;99456.39;1940686;73;28024;-55
2023/03/01 00:29:02;;;;;;;0.93;0.93;;;;;;;19.74;30.05;99444.13;1877890;75;28122;-54
2023/03/01 00:31:51;;;;;;;1.00;1.00;;;;;;;19.72;30.08;99451.69;1860410;76;28206;-54
2023/03/01 00:34:39;;;;;;;1.12;1.12;;;;;;;19.72;30.10;99448.16;1872350;76;28112;-55
2023/03/01 00:37:27;;;;;;;1.20;1.20;;;;;;;19.72;30.11;99453.61;1937521;73;28262;-54
2023/03/01 00:40:16;;;;;;;1.00;1.00;;;;;;;19.69;30.19;99446.70;1863779;76;28226;-51
2023/03/01 00:43:05;;;;;;;1.07;1.07;;;;;;;19.69;30.19;99446.70;1874181;75;28188;-55
2023/03/01 00:45:53;;;;;;;1.00;1.00;;;;;;;19.70;30.18;99440.17;1842646;77;28367;-55
2023/03/01 00:48:42;;;;;;;0.80;0.80;;;;;;;19.71;30.11;99441.02;1842398;77;28345;-56
2023/03/01 00:51:31;;;;;;;1.00;1.00;;;;;;;19.72;30.12;99444.87;1874251;76;28192;-55
2023/03/01 00:54:19;;;;;;;1.10;1.00;;;;;;;19.71;30.14;99448.67;1874146;76;28212;-55
2023/03/01 00:57:08;;;;;;;1.20;0.88;;;;;;;19.71;30.12;99450.03;1874308;76;28102;-57
2023/03/01 00:59:57;;;;;;;0.90;0.90;;;;;;;19.70;30.17;99448.34;1874269;76;28213;-53
2023/03/01 01:02:47;;;;;;;0.98;0.98;;;;;;;19.62;30.16;99440.44;1874056;76;28112;-53
2023/03/01 01:05:36;;;;;;;0.93;0.93;;;;;;;19.72;30.16;99444.06;1874065;76;28255;-54
2023/03/01 01:08:24;;;;;;;1.20;1.20;;;;;;;19.72;30.14;99443.52;1874240;76;28130;-56
2023/03/01 01:11:14;;;;;;;0.88;0.88;;;;;;;19.72;30.14;99439.98;1874177;76;28208;-55
2023/03/01 01:14:02;;;;;;;1.40;1.00;;;;;;;19.71;30.12;99429.59;1874451;76;28619;-56
2023/03/01 01:16:51;;;;;;;1.10;1.10;;;;;;;19.71;30.17;99424.67;1874441;76;28110;-53
2023/03/01 01:19:40;;;;;;;0.85;0.85;;;;;;;19.70;30.17;99425.70;1868064;76;28309;-53
2023/03/01 01:22:28;;;;;;;1.25;1.02;;;;;;;19.70;30.15;99419.73;1842526;77;28277;-54
2023/03/01 01:25:17;;;;;;;1.05;1.00;;;;;;;19.73;30.17;99421.19;1874649;76;32268;-52
2023/03/01 01:28:05;;;;;;;1.53;1.00;;;;;;;19.73;30.17;99419.83;1874367;76;28071;-55
2023/03/01 01:30:53;;;;;;;0.82;0.82;;;;;;;19.72;30.13;99418.17;1866266;76;28201;-56
2023/03/01 01:33:42;;;;;;;0.98;0.98;;;;;;;19.73;30.16;99418.47;1865093;76;28250;-53
2023/03/01 01:36:31;;;;;;;1.03;1.03;;;;;;;19.71;30.17;99411.04;1860800;76;28283;-55
2023/03/01 01:39:21;;;;;;;0.78;0.78;;;;;;;19.72;30.17;99415.45;1896020;74;28149;-54
2023/03/01 01:42:17;;;;;;;1.10;1.10;;;;;;;19.69;30.21;99412.63;1874309;76;28144;-57
2023/03/01 01:45:32;;;;;;;1.10;1.10;;;;;;;19.71;30.16;99402.86;1874142;76;28089;-56
2023/03/01 01:48:23;;;;;;;0.98;0.98;;;;;;;19.69;30.19;99399.53;1874167;76;28141;-55
2023/03/01 01:51:15;;;;;;;0.90;0.90;;;;;;;19.64;30.21;99394.73;1874129;76;28180;-56
2023/03/01 01:54:03;;;;;;;0.80;0.80;;;;;;;19.67;30.24;99392.10;1884743;75;28529;-57
2023/03/01 01:56:57;;;;;;;1.77;1.10;;;;;;;19.65;30.25;99381.95;1880297;75;28203;-52
2023/03/01 01:59:48;;;;;;;1.00;1.00;;;;;;;19.64;30.24;99383.83;1895995;75;28153;-54
2023/03/01 02:02:39;;;;;;;0.90;0.90;;;;;;;19.68;30.23;99383.70;1874188;76;28218;-55
2023/03/01 02:05:55;;;;;;;0.90;0.90;;;;;;;19.69;30.19;99376.36;1874309;76;28091;-54
2023/03/01 02:08:45;;;;;;;1.00;1.00;;;;;;;19.68;30.22;99380.97;1874302;76;28180;-55
2023/03/01 02:11:37;;;;;;;1.20;1.10;;;;;;;19.64;30.22;99377.02;1867005;76;28219;-52
2023/03/01 02:14:24;;;;;;;1.00;1.00;;;;;;;19.66;30.27;99376.27;1852370;76;28306;-55
2023/03/01 02:17:15;;;;;;;0.90;0.90;;;;;;;19.69;30.22;99370.91;1869366;75;28559;-55
2023/03/01 02:20:22;;;;;;;0.90;0.90;;;;;;;19.66;30.24;99363.16;1833370;77;36175;-54
2023/03/01 02:23:10;;;;;;;1.10;1.10;;;;;;;19.68;30.23;99360.53;1843197;77;38228;-55
2023/03/01 02:26:25;;;;;;;1.00;1.00;;;;;;;19.66;30.23;99353.63;1821222;78;28376;-55
2023/03/01 02:29:14;;;;;;;0.93;0.93;;;;;;;19.65;30.25;99349.25;1843052;77;28268;-57
2023/03/01 02:32:04;;;;;;;1.20;1.10;;;;;;;19.62;30.27;99345.07;1853647;77;28137;-59
2023/03/01 02:34:56;;;;;;;0.90;0.90;;;;;;;19.64;30.28;99342.96;1853788;76;28218;-56
2023/03/01 02:37:45;;;;;;;0.82;0.82;;;;;;;19.66;30.26;99337.28;1912237;74;28083;-57
2023/03/01 02:40:36;;;;;;;1.00;1.00;;;;;;;19.67;30.23;99343.05;1889164;75;28072;-57
2023/03/01 02:43:28;;;;;;;0.90;0.90;;;;;;;19.64;30.23;99336.67;1910294;74;28059;-55
2023/03/01 02:46:23;;;;;;;1.05;1.00;;;;;;;19.68;30.24;99332.44;1905367;74;28066;-57
2023/03/01 02:49:27;;;;;;;1.00;1.00;;;;;;;19.67;30.26;99330.27;1901430;75;28119;-56
2023/03/01 02:52:37;;;;;;;0.90;0.90;;;;;;;19.68;30.25;99323.75;1890369;75;28585;-57
2023/03/01 02:55:26;;;;;;;1.00;1.00;;;;;;;19.66;30.25;99320.41;1856925;77;28095;-55
2023/03/01 02:58:16;;;;;;;0.82;0.82;;;;;;;19.64;30.27;99318.95;1868493;76;28611;-56
2023/03/01 03:01:04;;;;;;;1.00;1.00;;;;;;;19.65;30.27;99317.92;1856794;77;28177;-55
2023/03/01 03:03:53;;;;;;;1.25;1.15;;;;;;;19.65;30.26;99313.83;1856720;77;28158;-53
2023/03/01 03:06:41;;;;;;;1.00;1.00;;;;;;;19.69;30.23;99309.60;1890326;75;28280;-54
2023/03/01 03:09:29;;;;;;;1.10;1.10;;;;;;;19.69;30.22;99306.87;1857818;75;28171;-55
2023/03/01 03:12:18;;;;;;;0.97;0.97;;;;;;;19.66;30.24;99298.61;1852846;77;28180;-58
2023/03/01 03:15:08;;;;;;;0.90;0.90;;;;;;;19.69;30.23;99299.55;1832645;77;28199;-52
2023/03/01 03:17:58;;;;;;;1.50;0.90;;;;;;;19.68;30.25;99301.11;1896554;75;28252;-58
2023/03/01 03:20:47;;;;;;;1.02;0.98;;;;;;;19.70;30.23;99301.20;1876287;75;28212;-54
2023/03/01 03:23:35;;;;;;;1.00;1.00;;;;;;;19.69;30.22;99300.06;1867701;76;28306;-52
2023/03/01 03:26:24;;;;;;;1.10;1.10;;;;;;;19.70;30.22;99300.35;1866991;76;28597;-55
2023/03/01 03:29:13;;;;;;;1.05;1.05;;;;;;;19.69;30.21;99290.53;1866777;76;28293;-54
2023/03/01 03:32:02;;;;;;;1.00;1.00;;;;;;;19.68;30.23;99286.96;1866882;76;28180;-55
2023/03/01 03:34:51;;;;;;;1.10;1.10;;;;;;;19.68;30.23;99285.59;1865788;76;28154;-56
2023/03/01 03:40:50;;;;;;;0.90;0.90;;;;;;;19.69;30.23;99294.61;1869864;75;28724;-52
2023/03/01 03:43:42;;;;;;;0.90;0.90;;;;;;;19.66;30.27;99283.63;1865973;76;28264;-54
2023/03/01 03:46:30;;;;;;;1.02;1.02;;;;;;;19.65;30.27;99289.31;1867244;76;28194;-54
2023/03/01 03:49:18;;;;;;;0.98;0.98;;;;;;;19.67;30.27;99289.39;1865840;76;28213;-53
2023/03/01 03:52:13;;;;;;;1.02;0.98;;;;;;;19.68;30.24;99290.20;1865646;76;28284;-53
2023/03/01 03:54:57;;;;;;;0.90;0.90;;;;;;;19.66;30.23;99289.59;1887903;75;28138;-54
2023/03/01 03:57:51;;;;;;;1.05;1.05;;;;;;;19.66;30.26;99285.51;1882733;75;28135;-55
2023/03/01 04:00:42;;;;;;;1.00;1.00;;;;;;;19.67;30.23;99288.03;1867109;76;38472;-55
2023/03/01 04:03:32;;;;;;;1.00;1.00;;;;;;;19.66;30.26;99282.78;1887936;75;28173;-54
2023/03/01 04:06:20;;;;;;;0.87;0.87;;;;;;;19.67;30.16;99281.22;1867923;76;28086;-56
2023/03/01 04:09:08;;;;;;;1.20;1.10;;;;;;;19.67;30.16;99281.22;1867741;76;28159;-55
2023/03/01 04:11:57;;;;;;;0.82;0.82;;;;;;;19.66;30.26;99273.25;1866064;76;28246;-59
2023/03/01 04:14:46;;;;;;;1.00;1.00;;;;;;;19.67;30.27;99279.02;1861350;76;28239;-54
2023/03/01 04:17:34;;;;;;;0.80;0.80;;;;;;;19.67;30.25;99278.50;1890665;74;28214;-57
2023/03/01 04:20:25;;;;;;;1.07;1.07;;;;;;;19.70;30.24;99282.64;1872934;75;28158;-55
2023/03/01 04:23:20;;;;;;;1.50;1.00;;;;;;;19.67;30.25;99270.84;1856732;77;28172;-58
2023/03/01 04:26:09;;;;;;;1.13;1.13;;;;;;;19.67;30.25;99273.05;1863525;75;28126;-52
2023/03/01 04:28:57;;;;;;;1.27;1.20;;;;;;;19.66;30.10;99267.80;1866400;75;28258;-57
2023/03/01 04:31:46;;;;;;;1.50;1.40;;;;;;;19.68;30.12;99265.69;1856790;77;28204;-57
2023/03/01 04:34:34;;;;;;;1.80;1.70;;;;;;;19.68;30.01;99267.89;1868723;76;28178;-57
2023/03/01 04:37:23;;;;;;;1.90;1.80;;;;;;;19.69;29.88;99266.00;1878728;75;28782;-55
2023/03/01 04:40:16;;;;;;;2.50;1.70;;;;;;;19.67;29.83;99264.88;1868647;76;28228;-53
2023/03/01 04:43:04;;;;;;;1.95;1.85;;;;;;;19.68;29.75;99264.32;1868579;76;28118;-55
2023/03/01 04:45:52;;;;;;;1.98;1.87;;;;;;;19.68;29.65;99265.16;1856624;77;28211;-56
2023/03/01 04:48:42;;;;;;;2.13;1.83;;;;;;;19.68;29.64;99264.32;1856792;77;28192;-55
2023/03/01 04:51:37;;;;;;;2.08;1.87;;;;;;;19.69;29.57;99271.45;1868581;76;28156;-55
2023/03/01 04:54:21;;;;;;;1.87;1.77;;;;;;;19.67;29.56;99268.12;1868566;76;28158;-55
2023/03/01 04:57:09;;;;;;;2.20;2.00;;;;;;;19.67;29.52;99267.59;1878499;75;28251;-56
2023/03/01 04:59:58;;;;;;;2.05;1.95;;;;;;;19.64;29.57;99262.58;1856678;77;28126;-55
2023/03/01 05:02:59;;;;;;;1.47;1.37;;;;;;;19.66;29.59;99271.36;1856992;77;28146;-55
2023/03/01 05:05:49;;;;;;;1.30;1.30;;;;;;;19.67;29.63;99266.75;1885908;75;28661;-55
2023/03/01 05:08:39;;;;;;;1.40;1.30;;;;;;;19.65;29.80;99264.78;1868696;76;28242;-55
2023/03/01 05:11:31;;;;;;;1.10;1.10;;;;;;;19.65;29.90;99257.97;1856829;77;28087;-55
2023/03/01 05:14:18;;;;;;;1.10;1.10;;;;;;;19.65;29.93;99262.06;1856677;77;28154;-56
2023/03/01 05:17:06;;;;;;;1.40;1.10;;;;;;;19.64;29.99;99261.22;1868586;76;28242;-57
2023/03/01 05:19:55;;;;;;;1.25;1.17;;;;;;;19.63;30.01;99264.98;1868662;76;28199;-51
2023/03/01 05:22:44;;;;;;;1.10;1.10;;;;;;;19.64;30.03;99261.73;1890337;75;28282;-54
2023/03/01 05:25:34;;;;;;;1.23;1.20;;;;;;;19.64;30.05;99263.10;1887955;75;28107;-52
2023/03/01 05:28:23;;;;;;;1.00;1.00;;;;;;;19.62;30.04;99263.33;1868759;76;28193;-54
2023/03/01 05:31:11;;;;;;;1.25;0.93;;;;;;;19.62;30.04;99263.85;1898285;75;28098;-52
2023/03/01 05:33:59;;;;;;;1.40;1.20;;;;;;;19.61;30.06;99254.00;1878137;75;28213;-54
2023/03/01 05:36:52;;;;;;;1.05;1.05;;;;;;;19.63;30.11;99258.17;1868762;76;28269;-55
2023/03/01 05:39:39;;;;;;;1.05;1.05;;;;;;;19.63;30.09;99254.08;1868827;76;28626;-54
2023/03/01 05:42:27;;;;;;;1.30;1.20;;;;;;;19.62;30.07;99258.41;1868651;76;28661;-54
2023/03/01 05:45:17;;;;;;;1.10;1.10;;;;;;;19.62;30.09;99253.80;1868652;76;28102;-53
2023/03/01 05:48:07;;;;;;;1.12;1.12;;;;;;;19.62;30.10;99255.68;1868785;76;28152;-56
2023/03/01 05:50:55;;;;;;;1.03;0.93;;;;;;;19.60;30.12;99257.80;1868772;76;28219;-53
2023/03/01 05:53:44;;;;;;;1.00;1.00;;;;;;;19.62;30.11;99252.44;1873544;75;28108;-55
2023/03/01 05:56:35;;;;;;;0.95;0.95;;;;;;;19.63;30.14;99249.16;1897909;75;28247;-55
2023/03/01 05:59:23;;;;;;;1.00;1.00;;;;;;;19.62;30.13;99248.87;1868557;76;28098;-54
2023/03/01 06:02:11;;;;;;;1.30;1.10;;;;;;;19.62;30.13;99252.95;1868608;76;28215;-56
2023/03/01 06:05:00;;;;;;;1.10;1.10;;;;;;;19.61;30.16;99254.00;1868569;76;28303;-57
2023/03/01 06:07:50;;;;;;;1.10;1.10;;;;;;;19.64;30.14;99257.66;1868755;76;28273;-55
2023/03/01 06:10:38;;;;;;;1.03;1.03;;;;;;;19.60;30.19;99251.83;1868699;76;28228;-53
2023/03/01 06:13:27;;;;;;;1.00;1.00;;;;;;;19.60;30.18;99253.19;1865753;76;28304;-54
2023/03/01 06:16:16;;;;;;;1.00;1.00;;;;;;;19.60;30.19;99248.26;1888648;75;38957;-56
2023/03/01 06:19:04;;;;;;;0.90;0.90;;;;;;;19.60;30.21;99250.98;1877827;75;28118;-56
2023/03/01 06:21:52;;;;;;;1.00;1.00;;;;;;;19.60;30.18;99249.62;1856778;77;28195;-55
2023/03/01 06:24:40;;;;;;;0.90;0.90;;;;;;;19.61;30.20;99247.19;1890711;75;28194;-56
2023/03/01 06:27:29;;;;;;;1.05;1.05;;;;;;;19.60;30.19;99250.46;1856810;77;28150;-56
2023/03/01 06:30:19;;;;;;;1.05;1.00;;;;;;;19.59;30.22;99251.50;1868448;76;28278;-53
2023/03/01 06:33:07;;;;;;;0.85;0.82;;;;;;;19.61;30.25;99249.91;1856795;77;28103;-56
2023/03/01 06:35:57;;;;;;;1.22;1.22;;;;;;;19.60;30.20;99248.26;1863922;75;28139;-55
2023/03/01 06:38:45;;;;;;;0.95;0.95;;;;;;;19.61;30.21;99248.03;1851306;77;28263;-55
2023/03/01 06:41:34;;;;;;;0.88;0.88;;;;;;;19.58;30.22;99245.73;1791896;79;28223;-57
2023/03/01 06:44:22;;;;;;;1.00;1.00;;;;;;;19.61;30.22;99247.19;1821917;78;28291;-54
2023/03/01 06:47:10;;;;;;;1.00;1.00;;;;;;;19.60;30.25;99249.62;1795371;78;28324;-57
2023/03/01 06:49:59;;;;;;;1.10;1.00;;;;;;;19.60;30.22;99252.34;1802261;78;27852;-55
2023/03/01 06:52:47;;;;;;;0.93;0.93;;;;;;;19.58;30.27;99245.73;1823416;78;28299;-56
2023/03/01 06:55:36;;;;;;;0.90;0.90;;;;;;;19.59;30.21;99254.23;1822736;78;28150;-58
2023/03/01 06:58:25;;;;;;;0.90;0.90;;;;;;;19.59;30.25;99253.39;1825224;77;28215;-55
2023/03/01 07:01:13;;;;;;;1.20;1.07;;;;;;;19.61;30.28;99258.08;1823566;78;28199;-57
2023/03/01 07:04:01;;;;;;;1.07;1.07;;;;;;;19.60;30.25;99257.80;1822233;78;28292;-56
2023/03/01 07:06:54;;;;;;;1.00;1.00;;;;;;;19.61;30.25;99255.36;1789778;79;28839;-56
2023/03/01 07:09:39;;;;;;;0.90;0.90;;;;;;;19.60;30.25;99257.27;1810726;78;28306;-56
2023/03/01 07:12:28;;;;;;;1.10;1.10;;;;;;;19.60;30.23;99257.80;1809140;78;28227;-58
2023/03/01 07:15:17;;;;;;;1.00;1.00;;;;;;;19.61;30.28;99260.81;1822638;78;28279;-51
2023/03/01 07:18:05;;;;;;;0.93;0.93;;;;;;;19.58;30.29;99255.82;1803288;77;28236;-54
2023/03/01 07:20:54;;;;;;;1.00;0.90;;;;;;;19.56;30.32;99256.02;1799289;78;28426;-54
2023/03/01 07:23:42;;;;;;;1.00;1.00;;;;;;;19.60;30.29;99256.44;1809507;78;28328;-55
2023/03/01 07:26:31;;;;;;;1.10;1.10;;;;;;;19.61;30.28;99262.17;1793126;79;28309;-53
2023/03/01 07:29:20;;;;;;;1.30;1.07;;;;;;;19.60;30.28;99263.24;1822937;78;28219;-57
2023/03/01 07:32:09;;;;;;;1.00;1.00;;;;;;;19.61;30.26;99266.26;1790410;79;30361;-56
2023/03/01 07:34:57;;;;;;;0.90;0.90;;;;;;;19.60;30.28;99259.16;1857042;77;28142;-55
2023/03/01 07:37:46;;;;;;;0.90;0.90;;;;;;;19.60;30.29;99266.81;1856975;77;28142;-55
2023/03/01 07:40:34;;;;;;;1.02;1.02;;;;;;;19.59;30.30;99261.04;1862065;75;28168;-52
2023/03/01 07:43:22;;;;;;;1.00;1.00;;;;;;;19.60;30.30;99260.52;1890364;75;28306;-55
2023/03/01 07:46:11;;;;;;;1.20;1.10;;;;;;;19.59;30.33;99258.84;1868851;76;28060;-54
2023/03/01 07:48:59;;;;;;;0.90;0.90;;;;;;;19.59;30.30;99263.77;1890495;75;28211;-55
2023/03/01 07:51:47;;;;;;;1.20;1.10;;;;;;;19.61;30.28;99258.08;1856794;77;28240;-55
2023/03/01 07:54:36;;;;;;;1.02;1.02;;;;;;;19.61;30.29;99259.45;1856706;77;28095;-55
2023/03/01 07:57:24;;;;;;;1.00;1.00;;;;;;;19.59;30.29;99256.11;1868503;76;28218;-56
2023/03/01 08:00:14;;;;;;;0.87;0.87;;;;;;;19.60;30.30;99253.70;1881313;75;28263;-57
2023/03/01 08:03:03;;;;;;;1.10;1.10;;;;;;;19.62;30.28;99253.80;1878046;75;28462;-56
2023/03/01 08:05:51;;;;;;;0.90;0.90;;;;;;;19.57;30.34;99251.41;1856647;77;28180;-58
2023/03/01 08:08:40;;;;;;;1.00;1.00;;;;;;;19.56;30.34;99250.57;1856803;77;28167;-54
2023/03/01 08:11:28;;;;;;;0.90;0.90;;;;;;;19.57;30.31;99246.80;1856516;77;28196;-53
2023/03/01 08:14:17;;;;;;;1.00;1.00;;;;;;;19.58;30.32;99245.73;1889524;75;28107;-57
2023/03/01 08:17:05;;;;;;;1.00;1.00;;;;;;;19.58;30.33;99247.09;1873288;75;28258;-54
2023/03/01 08:19:53;;;;;;;1.10;1.10;;;;;;;19.60;30.31;99248.26;1890619;74;28284;-56
2023/03/01 08:22:42;;;;;;;1.10;1.10;;;;;;;19.61;30.31;99247.19;1890679;75;28085;-53
2023/03/01 08:25:30;;;;;;;0.97;0.93;;;;;;;19.61;30.28;99243.09;1888393;75;28118;-57
2023/03/01 08:28:18;;;;;;;1.05;1.05;;;;;;;19.59;30.30;99251.50;1901291;75;28176;-56
2023/03/01 08:31:19;;;;;;;1.00;1.00;;;;;;;19.61;30.30;99252.11;1871844;75;28218;-52
2023/03/01 08:34:14;;;;;;;1.00;1.00;;;;;;;19.62;30.29;99252.44;1868758;76;28185;-52
2023/03/01 08:37:03;;;;;;;1.10;1.10;;;;;;;19.61;30.28;99252.63;1868700;76;28291;-56
2023/03/01 08:39:52;;;;;;;1.00;1.00;;;;;;;19.58;30.30;99252.55;1868842;76;28246;-55
2023/03/01 08:42:40;;;;;;;0.80;0.80;;;;;;;19.60;30.30;99254.55;1890624;75;28195;-58
2023/03/01 08:45:28;;;;;;;2.47;0.95;;;;;;;19.61;30.33;99254.00;1873156;75;28157;-52
2023/03/01 08:48:17;;;;;;;0.93;0.93;;;;;;;19.60;30.31;99250.98;1901371;75;28078;-56
2023/03/01 08:51:18;;;;;;;1.00;1.00;;;;;;;19.62;30.29;99251.59;1901287;75;28186;-55
2023/03/01 08:54:10;;;;;;;0.90;0.90;;;;;;;19.62;30.27;99249.70;1843544;76;39027;-55
2023/03/01 08:56:58;;;;;;;1.17;1.07;;;;;;;19.60;30.31;99246.89;1872868;75;28193;-53
2023/03/01 08:59:47;;;;;;;1.12;1.12;;;;;;;19.59;30.30;99242.48;1869389;75;28226;-54
2023/03/01 09:02:35;;;;;;;1.47;1.00;;;;;;;19.61;30.27;99246.66;1901243;75;28113;-57
2023/03/01 09:05:24;;;;;;;1.07;1.07;;;;;;;19.62;30.29;99242.06;1890262;75;28234;-58
2023/03/01 09:08:12;;;;;;;1.20;1.20;;;;;;;19.64;30.28;99244.03;1873375;75;28080;-55
2023/03/01 09:11:03;;;;;;;0.98;0.95;;;;;;;19.65;30.27;99245.16;1901469;75;28090;-56
2023/03/01 09:13:52;;;;;;;0.93;0.93;;;;;;;19.67;30.24;99243.08;1885780;75;28146;-54
2023/03/01 09:16:40;;;;;;;1.10;1.10;;;;;;;19.68;30.22;99238.44;1868841;76;28167;-53
2023/03/01 09:19:29;;;;;;;1.20;1.10;;;;;;;19.67;30.25;99236.78;1868467;76;28317;-57
2023/03/01 09:22:18;;;;;;;1.17;1.17;;;;;;;19.67;30.25;99239.51;1868361;76;28161;-55
2023/03/01 09:25:07;;;;;;;1.05;1.05;;;;;;;19.66;30.26;99236.46;1856676;77;28219;-56
2023/03/01 09:27:56;;;;;;;0.90;0.90;;;;;;;19.67;30.26;99232.17;1868894;76;28220;-57
2023/03/01 09:30:45;;;;;;;1.17;1.17;;;;;;;19.65;30.25;99232.09;1868591;76;28730;-58
2023/03/01 09:33:35;;;;;;;1.40;1.03;;;;;;;19.68;30.26;99240.64;1875965;75;28305;-56
2023/03/01 09:36:25;;;;;;;1.83;1.00;;;;;;;19.67;30.22;99232.17;1869898;75;28872;-54
2023/03/01 09:39:13;;;;;;;0.98;0.98;;;;;;;19.68;30.25;99233.83;1871966;75;28177;-54
2023/03/01 09:42:04;;;;;;;1.10;1.10;;;;;;;19.68;30.24;99234.34;1868733;76;28136;-52
2023/03/01 09:45:13;;;;;;;0.82;0.82;;;;;;;19.71;30.22;99239.36;1856879;77;28188;-51
2023/03/01 09:48:03;;;;;;;1.00;1.00;;;;;;;19.70;30.23;99233.59;1856872;77;28186;-54
2023/03/01 09:50:52;;;;;;;1.10;1.10;;;;;;;19.65;30.30;99219.27;1856810;77;28310;-57
2023/03/01 09:53:41;;;;;;;0.77;0.77;;;;;;;19.67;30.30;99214.98;1864129;75;28102;-60
2023/03/01 09:56:32;;;;;;;1.20;1.10;;;;;;;19.67;30.27;99215.83;1898740;75;28115;-60
2023/03/01 09:59:26;;;;;;;0.90;0.90;;;;;;;19.67;30.27;99213.63;1856888;77;28209;-55
2023/03/01 10:02:26;;;;;;;1.10;1.10;;;;;;;19.65;30.27;99208.92;1868502;75;28097;-55
2023/03/01 10:05:39;;;;;;;1.50;1.07;;;;;;;19.65;30.30;99211.09;1892981;75;28206;-56
2023/03/01 10:08:43;;;;;;;1.20;1.20;;;;;;;19.66;30.28;99208.69;1876406;75;28106;-58
2023/03/01 10:11:40;;;;;;;1.10;1.10;;;;;;;19.63;30.32;99201.48;1874221;75;28607;-53
2023/03/01 10:14:40;;;;;;;2.10;1.10;;;;;;;19.63;30.33;99206.41;1856830;77;28172;-56
2023/03/01 10:17:37;;;;;;;1.10;1.10;;;;;;;19.65;30.34;99203.48;1857127;77;28235;-56
2023/03/01 10:20:28;;;;;;;0.80;0.80;;;;;;;19.66;30.34;99196.95;1873551;75;28212;-56
2023/03/01 10:23:16;;;;;;;1.07;1.07;;;;;;;19.68;30.29;99192.11;1867084;76;28188;-57
2023/03/01 10:26:08;;;;;;;1.12;1.10;;;;;;;19.67;30.29;99188.58;1870255;76;28209;-56
2023/03/01 10:29:07;;;;;;;1.00;1.00;;;;;;;19.68;30.27;99186.66;1875944;75;28127;-54
2023/03/01 10:31:55;;;;;;;0.88;0.88;;;;;;;19.71;30.26;99183.50;1822886;77;28219;-53
2023/03/01 10:34:44;;;;;;;1.03;1.03;;;;;;;19.72;30.38;99184.63;1854712;77;28142;-55
2023/03/01 10:37:32;;;;;;;1.00;1.00;;;;;;;19.72;30.38;99184.63;1854760;77;28197;-53
2023/03/01 10:40:21;;;;;;;1.10;1.10;;;;;;;19.71;30.25;99171.23;1855001;77;33103;-56
2023/03/01 10:43:12;;;;;;;1.70;1.17;;;;;;;19.74;30.23;99170.80;1872289;75;28138;-56
2023/03/01 10:46:01;;;;;;;1.02;1.02;;;;;;;19.73;30.25;99166.39;1883505;75;28269;-55
2023/03/01 10:49:09;;;;;;;0.95;0.95;;;;;;;19.75;30.22;99161.55;1862572;76;28182;-56
2023/03/01 10:52:01;;;;;;;1.00;1.00;;;;;;;19.73;30.24;99164.51;1874403;75;28197;-56
2023/03/01 10:54:58;;;;;;;0.93;0.93;;;;;;;19.74;30.24;99168.08;1870152;76;28145;-56
2023/03/01 10:57:47;;;;;;;0.93;0.93;;;;;;;19.73;30.22;99163.67;1865492;76;28347;-56
2023/03/01 11:00:38;;;;;;;1.00;1.00;;;;;;;19.70;30.27;99158.66;1880319;75;28089;-55
2023/03/01 11:03:32;;;;;;;1.20;1.20;;;;;;;19.72;30.24;99160.10;1865114;75;28151;-55
2023/03/01 11:06:23;;;;;;;0.90;0.90;;;;;;;19.74;30.25;99162.63;1816064;77;28391;-54
2023/03/01 11:09:17;;;;;;;0.93;0.93;;;;;;;19.72;30.23;99147.84;1868665;75;28166;-55
2023/03/01 11:12:08;;;;;;;1.05;1.05;;;;;;;19.76;30.21;99156.42;1865026;76;28080;-55
2023/03/01 11:14:58;;;;;;;1.10;1.10;;;;;;;19.74;30.22;99151.17;1862642;76;28245;-55
2023/03/01 11:17:46;;;;;;;1.00;1.00;;;;;;;19.76;30.25;99148.24;1863218;75;28175;-53
2023/03/01 11:20:39;;;;;;;0.88;0.88;;;;;;;19.75;30.27;99144.67;1818021;77;28254;-55
2023/03/01 11:23:31;;;;;;;1.00;1.00;;;;;;;19.78;30.21;99145.59;1862603;76;28263;-55
2023/03/01 11:26:20;;;;;;;1.05;1.05;;;;;;;19.78;30.23;99138.78;1836060;76;28732;-54
2023/03/01 11:29:15;;;;;;;1.00;1.00;;;;;;;19.78;30.22;99136.58;1834797;77;28253;-53
2023/03/01 11:32:06;;;;;;;1.62;1.10;;;;;;;19.80;30.21;99136.66;1805844;77;28286;-56
2023/03/01 11:35:22;;;;;;;1.00;1.00;;;;;;;19.77;30.22;99138.47;1834868;77;28476;-54
2023/03/01 11:38:25;;;;;;;1.05;1.05;;;;;;;19.78;30.20;99130.61;1836283;77;28229;-57
2023/03/01 11:41:36;;;;;;;1.10;1.10;;;;;;;19.75;30.26;99128.33;1866064;76;28227;-55
2023/03/01 11:44:28;;;;;;;1.17;1.17;;;;;;;19.74;30.27;99126.64;1847154;76;28288;-54
2023/03/01 11:47:53;;;;;;;1.13;1.13;;;;;;;19.72;30.30;99111.05;1858291;76;28289;-56
2023/03/01 11:50:44;;;;;;;1.22;1.17;;;;;;;19.72;30.32;99108.33;1836439;77;28251;-54
2023/03/01 11:53:53;;;;;;;1.27;1.17;;;;;;;19.69;30.36;99101.15;1838136;76;28398;-56
2023/03/01 11:56:50;;;;;;;1.20;1.20;;;;;;;19.72;30.31;99096.62;1843059;76;28344;-55
2023/03/01 11:59:50;;;;;;;1.20;1.20;;;;;;;19.73;30.32;99084.13;1835920;77;28359;-55
2023/03/01 12:02:58;;;;;;;1.00;1.00;;;;;;;19.71;30.30;99073.98;1834676;77;28168;-53
2023/03/01 12:06:04;;;;;;;1.40;1.10;;;;;;;19.75;30.28;99075.70;1835999;77;28177;-56
2023/03/01 12:09:16;;;;;;;1.07;1.07;;;;;;;19.73;30.31;99074.58;1836114;77;28238;-56
2023/03/01 12:12:10;;;;;;;1.05;1.05;;;;;;;19.74;30.31;99081.68;1835052;77;28260;-55
2023/03/01 12:15:28;;;;;;;1.20;1.20;;;;;;;19.71;30.34;99078.06;1834525;77;28232;-55
2023/03/01 12:18:42;;;;;;;1.10;1.10;;;;;;;19.73;30.32;99075.11;1835621;77;28250;-54
2023/03/01 12:22:01;;;;;;;1.30;1.20;;;;;;;19.70;30.35;99072.30;1835695;77;28261;-54
2023/03/01 12:25:13;;;;;;;1.05;1.05;;;;;;;19.71;30.34;99068.53;1850999;77;28122;-53
2023/03/01 12:28:23;;;;;;;1.00;1.00;;;;;;;19.70;30.32;99074.19;1868769;76;28215;-55
2023/03/01 12:31:31;;;;;;;1.32;1.22;;;;;;;19.71;30.37;99058.16;1890734;75;31177;-57
2023/03/01 12:34:42;;;;;;;1.10;1.10;;;;;;;19.71;30.35;99067.69;1864149;75;28151;-52
2023/03/01 12:37:42;;;;;;;1.22;1.22;;;;;;;19.68;30.35;99064.89;1867288;75;28208;-56
2023/03/01 12:40:50;;;;;;;1.35;1.35;;;;;;;19.72;30.34;99067.45;1875955;75;28188;-53
2023/03/01 12:43:54;;;;;;;1.25;1.15;;;;;;;19.74;30.34;99068.05;1870014;75;28349;-54
2023/03/01 12:47:12;;;;;;;1.40;1.30;;;;;;;19.71;30.35;99056.27;1868826;75;28204;-56
2023/03/01 12:50:18;;;;;;;0.93;0.93;;;;;;;19.73;30.34;99056.03;1868612;76;28098;-57
2023/03/01 12:53:06;;;;;;;1.12;1.12;;;;;;;19.70;30.35;99052.39;1856734;77;28339;-58
2023/03/01 12:56:00;;;;;;;1.40;1.30;;;;;;;19.71;30.34;99049.45;1885629;75;28272;-52
2023/03/01 12:59:07;;;;;;;1.10;1.10;;;;;;;19.72;30.32;99040.20;1861677;75;28297;-53
2023/03/01 13:02:33;;;;;;;1.25;1.25;;;;;;;19.76;30.26;99036.52;1869146;76;28204;-56
2023/03/01 13:05:42;;;;;;;1.17;1.17;;;;;;;19.75;30.28;99030.75;1777006;80;28422;-54
2023/03/01 13:08:39;;;;;;;1.87;1.27;;;;;;;19.73;30.35;99028.78;1741673;81;28433;-57
2023/03/01 13:11:27;;;;;;;1.15;1.15;;;;;;;19.71;30.34;99016.76;1817478;78;28321;-58
2023/03/01 13:14:25;;;;;;;1.20;1.20;;;;;;;19.75;30.32;99015.76;1821795;78;28262;-56
2023/03/01 13:17:25;;;;;;;1.02;1.02;;;;;;;19.76;30.27;99013.34;1824980;77;28184;-52
2023/03/01 13:20:16;;;;;;;1.30;1.30;;;;;;;19.74;30.28;99004.02;1848430;75;28090;-54
2023/03/01 13:23:13;;;;;;;1.60;1.50;;;;;;;19.77;30.26;99007.66;1879430;75;31991;-53
2023/03/01 13:26:13;;;;;;;1.22;1.20;;;;;;;19.79;30.21;98997.91;1882374;74;28265;-55
2023/03/01 13:29:02;;;;;;;1.37;1.27;;;;;;;19.80;30.23;98998.20;1901672;74;28137;-55
2023/03/01 13:31:53;;;;;;;1.22;1.22;;;;;;;19.80;30.25;98995.47;1892703;74;28288;-51
2023/03/01 13:34:45;;;;;;;1.42;1.35;;;;;;;19.82;30.18;99005.09;1890780;74;28141;-53